sensor_id;sensor_type;location;lat;lon;timestamp;noise_LAeq;noise_LA_min;noise_LA_max;noise_LA01;noise_LA95
63692;Laerm;49838;51.798;10.954;2023-08-21T00:00:25;31.49;28.46;44.95;;
63692;Laerm;49838;51.798;10.954;2023-08-21T00:02:52;33.15;28.95;40.31;;
63692;Laerm;49838;51.798;10.954;2023-08-21T00:05:19;34.33;29.03;41.60;;
63692;Laerm;49838;51.798;10.954;2023-08-21T00:07:46;33.19;29.64;44.49;;
63692;Laerm;49838;51.798;10.954;2023-08-21T00:10:17;35.62;30.15;49.57;;
63692;Laerm;49838;51.798;10.954;2023-08-21T00:12:44;34.19;30.27;43.60;;
63692;Laerm;49838;51.798;10.954;2023-08-21T00:15:12;34.26;29.27;43.91;;
63692;Laerm;49838;51.798;10.954;2023-08-21T00:17:40;38.44;30.25;67.93;;
63692;Laerm;49838;51.798;10.954;2023-08-21T00:20:08;34.12;30.33;42.80;;
63692;Laerm;49838;51.798;10.954;2023-08-21T00:22:35;32.33;28.84;41.29;;
63692;Laerm;49838;51.798;10.954;2023-08-21T00:25:03;35.36;30.93;49.39;;
63692;Laerm;49838;51.798;10.954;2023-08-21T00:27:31;32.93;28.98;41.39;;
63692;Laerm;49838;51.798;10.954;2023-08-21T00:30:00;35.07;30.31;42.64;;
63692;Laerm;49838;51.798;10.954;2023-08-21T00:32:29;36.19;29.64;57.73;;
63692;Laerm;49838;51.798;10.954;2023-08-21T00:34:56;34.61;29.84;41.89;;
63692;Laerm;49838;51.798;10.954;2023-08-21T00:37:23;36.41;30.23;47.96;;
63692;Laerm;49838;51.798;10.954;2023-08-21T00:39:51;33.71;29.46;47.33;;
63692;Laerm;49838;51.798;10.954;2023-08-21T00:42:18;35.75;29.77;46.32;;
63692;Laerm;49838;51.798;10.954;2023-08-21T00:44:45;34.42;29.27;45.80;;
63692;Laerm;49838;51.798;10.954;2023-08-21T00:47:13;34.01;28.80;44.86;;
63692;Laerm;49838;51.798;10.954;2023-08-21T00:49:41;34.55;30.01;45.50;;
63692;Laerm;49838;51.798;10.954;2023-08-21T00:52:10;32.09;29.25;49.29;;
63692;Laerm;49838;51.798;10.954;2023-08-21T00:54:38;32.19;29.20;42.67;;
63692;Laerm;49838;51.798;10.954;2023-08-21T00:57:06;32.02;29.47;41.70;;
63692;Laerm;49838;51.798;10.954;2023-08-21T00:59:33;32.30;29.76;36.90;;
63692;Laerm;49838;51.798;10.954;2023-08-21T01:02:01;33.08;29.96;40.07;;
63692;Laerm;49838;51.798;10.954;2023-08-21T01:04:31;32.32;28.88;47.54;;
63692;Laerm;49838;51.798;10.954;2023-08-21T08:59:43;56.39;41.16;74.58;;
63692;Laerm;49838;51.798;10.954;2023-08-21T09:02:10;50.74;38.30;65.42;;
63692;Laerm;49838;51.798;10.954;2023-08-21T09:04:38;44.13;38.10;58.54;;
63692;Laerm;49838;51.798;10.954;2023-08-21T09:07:08;58.61;39.38;71.74;;
63692;Laerm;49838;51.798;10.954;2023-08-21T09:09:39;55.14;38.55;71.21;;
63692;Laerm;49838;51.798;10.954;2023-08-21T09:12:10;57.79;37.98;69.54;;
63692;Laerm;49838;51.798;10.954;2023-08-21T09:14:39;55.50;38.94;73.69;;
63692;Laerm;49838;51.798;10.954;2023-08-21T09:17:08;55.68;39.52;68.81;;
63692;Laerm;49838;51.798;10.954;2023-08-21T09:19:36;58.61;39.58;76.42;;
63692;Laerm;49838;51.798;10.954;2023-08-21T09:22:08;57.49;39.34;72.42;;
63692;Laerm;49838;51.798;10.954;2023-08-21T09:24:36;55.68;42.80;69.77;;
63692;Laerm;49838;51.798;10.954;2023-08-21T09:27:04;58.41;41.12;70.32;;
63692;Laerm;49838;51.798;10.954;2023-08-21T09:29:38;49.66;39.66;64.47;;
63692;Laerm;49838;51.798;10.954;2023-08-21T09:32:07;59.09;39.60;75.36;;
63692;Laerm;49838;51.798;10.954;2023-08-21T09:34:36;60.39;40.40;74.44;;
63692;Laerm;49838;51.798;10.954;2023-08-21T09:37:05;59.45;45.73;74.22;;
63692;Laerm;49838;51.798;10.954;2023-08-21T09:39:34;59.96;40.75;78.40;;
63692;Laerm;49838;51.798;10.954;2023-08-21T09:42:05;56.36;40.00;75.43;;
63692;Laerm;49838;51.798;10.954;2023-08-21T09:44:37;56.79;41.60;78.61;;
63692;Laerm;49838;51.798;10.954;2023-08-21T09:47:09;63.58;42.18;84.56;;
63692;Laerm;49838;51.798;10.954;2023-08-21T09:49:37;48.19;38.88;65.01;;
63692;Laerm;49838;51.798;10.954;2023-08-21T09:52:06;54.35;39.20;66.71;;
63692;Laerm;49838;51.798;10.954;2023-08-21T09:54:37;58.65;36.54;73.83;;
63692;Laerm;49838;51.798;10.954;2023-08-21T09:57:05;59.70;37.48;73.88;;
63692;Laerm;49838;51.798;10.954;2023-08-21T09:59:32;57.89;36.85;74.70;;
63692;Laerm;49838;51.798;10.954;2023-08-21T10:02:00;51.69;38.30;67.39;;
63692;Laerm;49838;51.798;10.954;2023-08-21T10:04:30;56.77;37.69;73.29;;
63692;Laerm;49838;51.798;10.954;2023-08-21T10:07:00;53.37;36.06;67.51;;
63692;Laerm;49838;51.798;10.954;2023-08-21T10:09:29;56.72;40.33;72.82;;
63692;Laerm;49838;51.798;10.954;2023-08-21T10:11:58;58.15;39.34;69.96;;
63692;Laerm;49838;51.798;10.954;2023-08-21T10:14:26;55.71;37.44;70.67;;
63692;Laerm;49838;51.798;10.954;2023-08-21T10:16:54;60.59;39.51;74.20;;
63692;Laerm;49838;51.798;10.954;2023-08-21T10:19:21;60.85;39.07;72.78;;
63692;Laerm;49838;51.798;10.954;2023-08-21T10:21:55;59.07;38.96;75.58;;
63692;Laerm;49838;51.798;10.954;2023-08-21T10:24:33;61.97;37.86;77.93;;
63692;Laerm;49838;51.798;10.954;2023-08-21T10:27:03;57.42;38.22;70.96;;
63692;Laerm;49838;51.798;10.954;2023-08-21T10:29:40;50.29;38.91;65.75;;
63692;Laerm;49838;51.798;10.954;2023-08-21T10:32:07;53.20;36.88;67.78;;
63692;Laerm;49838;51.798;10.954;2023-08-21T10:34:53;60.67;39.57;78.16;;
63692;Laerm;49838;51.798;10.954;2023-08-21T10:37:22;53.48;37.27;68.41;;
63692;Laerm;49838;51.798;10.954;2023-08-21T10:39:56;57.81;38.35;72.11;;
63692;Laerm;49838;51.798;10.954;2023-08-21T10:42:37;53.50;40.19;70.96;;
63692;Laerm;49838;51.798;10.954;2023-08-21T10:45:10;54.99;40.60;69.36;;
63692;Laerm;49838;51.798;10.954;2023-08-21T10:47:38;59.04;42.28;69.31;;
63692;Laerm;49838;51.798;10.954;2023-08-21T10:50:06;64.45;42.74;81.49;;
63692;Laerm;49838;51.798;10.954;2023-08-21T10:52:37;60.23;43.11;76.57;;
63692;Laerm;49838;51.798;10.954;2023-08-21T10:55:06;60.93;39.74;80.28;;
63692;Laerm;49838;51.798;10.954;2023-08-21T10:57:36;56.76;41.52;71.41;;
63692;Laerm;49838;51.798;10.954;2023-08-21T11:00:05;60.59;41.24;74.71;;
63692;Laerm;49838;51.798;10.954;2023-08-21T11:02:36;60.65;39.72;74.23;;
63692;Laerm;49838;51.798;10.954;2023-08-21T11:05:05;60.76;39.92;78.95;;
63692;Laerm;49838;51.798;10.954;2023-08-21T11:07:38;55.85;38.41;71.51;;
63692;Laerm;49838;51.798;10.954;2023-08-21T11:10:06;57.78;40.21;70.47;;
63692;Laerm;49838;51.798;10.954;2023-08-21T11:12:34;55.40;35.83;70.75;;
63692;Laerm;49838;51.798;10.954;2023-08-21T11:15:02;56.32;36.30;72.35;;
63692;Laerm;49838;51.798;10.954;2023-08-21T11:17:30;57.38;36.07;72.20;;
63692;Laerm;49838;51.798;10.954;2023-08-21T11:20:00;58.66;37.36;71.80;;
63692;Laerm;49838;51.798;10.954;2023-08-21T11:22:32;55.07;37.64;72.21;;
63692;Laerm;49838;51.798;10.954;2023-08-21T11:25:00;54.48;38.66;68.32;;
63692;Laerm;49838;51.798;10.954;2023-08-21T11:27:28;58.40;37.37;72.11;;
63692;Laerm;49838;51.798;10.954;2023-08-21T11:29:55;56.34;38.37;69.47;;
63692;Laerm;49838;51.798;10.954;2023-08-21T11:32:23;59.74;39.73;77.34;;
63692;Laerm;49838;51.798;10.954;2023-08-21T11:34:51;58.07;36.53;74.74;;
63692;Laerm;49838;51.798;10.954;2023-08-21T11:37:21;56.15;37.56;70.25;;
63692;Laerm;49838;51.798;10.954;2023-08-21T11:39:49;54.18;37.97;73.77;;
63692;Laerm;49838;51.798;10.954;2023-08-21T11:42:20;57.78;38.35;77.28;;
63692;Laerm;49838;51.798;10.954;2023-08-21T11:44:50;63.14;38.99;86.30;;
63692;Laerm;49838;51.798;10.954;2023-08-21T11:47:19;58.02;40.45;72.43;;
63692;Laerm;49838;51.798;10.954;2023-08-21T11:49:47;63.27;39.04;79.76;;
63692;Laerm;49838;51.798;10.954;2023-08-21T11:52:18;60.02;38.22;75.65;;
63692;Laerm;49838;51.798;10.954;2023-08-21T11:54:48;61.70;38.57;81.73;;
63692;Laerm;49838;51.798;10.954;2023-08-21T11:57:18;65.12;42.32;82.13;;
63692;Laerm;49838;51.798;10.954;2023-08-21T11:59:49;55.04;37.00;73.52;;
63692;Laerm;49838;51.798;10.954;2023-08-21T12:02:18;57.41;39.60;71.96;;
63692;Laerm;49838;51.798;10.954;2023-08-21T12:04:51;57.03;40.39;69.94;;
63692;Laerm;49838;51.798;10.954;2023-08-21T12:07:19;58.37;38.30;72.10;;
63692;Laerm;49838;51.798;10.954;2023-08-21T12:09:46;51.92;36.38;68.11;;
63692;Laerm;49838;51.798;10.954;2023-08-21T12:12:15;54.85;36.88;71.90;;
63692;Laerm;49838;51.798;10.954;2023-08-21T12:14:44;53.16;38.18;68.97;;
63692;Laerm;49838;51.798;10.954;2023-08-21T12:17:11;57.50;38.60;72.98;;
63692;Laerm;49838;51.798;10.954;2023-08-21T12:19:38;54.36;35.47;72.30;;
63692;Laerm;49838;51.798;10.954;2023-08-21T12:22:07;57.24;34.45;76.80;;
63692;Laerm;49838;51.798;10.954;2023-08-21T12:24:35;57.62;35.18;70.76;;
63692;Laerm;49838;51.798;10.954;2023-08-21T12:27:04;58.61;35.85;71.23;;
63692;Laerm;49838;51.798;10.954;2023-08-21T12:29:31;61.05;35.56;81.46;;
63692;Laerm;49838;51.798;10.954;2023-08-21T12:32:00;62.10;37.45;80.93;;
63692;Laerm;49838;51.798;10.954;2023-08-21T12:34:28;59.47;37.34;77.61;;
63692;Laerm;49838;51.798;10.954;2023-08-21T12:36:56;52.25;36.09;67.87;;
63692;Laerm;49838;51.798;10.954;2023-08-21T12:39:23;55.41;34.06;72.00;;
63692;Laerm;49838;51.798;10.954;2023-08-21T12:41:50;56.00;35.15;73.04;;
63692;Laerm;49838;51.798;10.954;2023-08-21T12:44:18;58.45;33.70;75.53;;
63692;Laerm;49838;51.798;10.954;2023-08-21T12:46:45;50.61;33.16;69.14;;
63692;Laerm;49838;51.798;10.954;2023-08-21T12:49:14;53.31;33.61;68.68;;
63692;Laerm;49838;51.798;10.954;2023-08-21T12:51:41;57.09;35.44;71.40;;
63692;Laerm;49838;51.798;10.954;2023-08-21T12:54:08;58.47;36.62;70.49;;
63692;Laerm;49838;51.798;10.954;2023-08-21T12:56:36;55.58;34.85;70.53;;
63692;Laerm;49838;51.798;10.954;2023-08-21T12:59:05;55.24;37.53;73.37;;
63692;Laerm;49838;51.798;10.954;2023-08-21T13:01:32;58.11;38.37;70.93;;
63692;Laerm;49838;51.798;10.954;2023-08-21T13:04:00;56.50;37.41;71.87;;
63692;Laerm;49838;51.798;10.954;2023-08-21T13:06:30;57.77;40.20;70.47;;
63692;Laerm;49838;51.798;10.954;2023-08-21T13:08:57;58.90;40.93;71.20;;
63692;Laerm;49838;51.798;10.954;2023-08-21T13:11:25;57.86;38.61;71.89;;
63692;Laerm;49838;51.798;10.954;2023-08-21T13:13:52;58.76;38.60;71.99;;
63692;Laerm;49838;51.798;10.954;2023-08-21T13:16:19;59.97;37.46;75.31;;
63692;Laerm;49838;51.798;10.954;2023-08-21T13:18:47;53.09;35.33;70.85;;
63692;Laerm;49838;51.798;10.954;2023-08-21T13:21:14;56.80;36.16;70.59;;
63692;Laerm;49838;51.798;10.954;2023-08-21T13:23:43;61.63;37.57;71.69;;
63692;Laerm;49838;51.798;10.954;2023-08-21T13:26:10;61.58;39.59;75.24;;
63692;Laerm;49838;51.798;10.954;2023-08-21T13:28:37;56.13;34.88;72.58;;
63692;Laerm;49838;51.798;10.954;2023-08-21T13:31:05;59.38;39.24;75.37;;
63692;Laerm;49838;51.798;10.954;2023-08-21T13:33:44;62.98;41.26;78.11;;
63692;Laerm;49838;51.798;10.954;2023-08-21T13:36:11;55.11;37.38;71.93;;
63692;Laerm;49838;51.798;10.954;2023-08-21T13:38:38;58.54;39.71;70.84;;
63692;Laerm;49838;51.798;10.954;2023-08-21T13:41:07;53.54;39.17;73.96;;
63692;Laerm;49838;51.798;10.954;2023-08-21T13:43:35;55.47;37.86;71.80;;
63692;Laerm;49838;51.798;10.954;2023-08-21T13:46:03;57.32;40.56;80.72;;
63692;Laerm;49838;51.798;10.954;2023-08-21T13:48:31;56.36;37.03;72.24;;
63692;Laerm;49838;51.798;10.954;2023-08-21T13:50:58;57.92;40.36;70.97;;
63692;Laerm;49838;51.798;10.954;2023-08-21T13:53:25;60.44;40.45;77.28;;
63692;Laerm;49838;51.798;10.954;2023-08-21T13:55:52;54.34;36.06;70.22;;
63692;Laerm;49838;51.798;10.954;2023-08-21T13:58:21;58.62;39.63;72.03;;
63692;Laerm;49838;51.798;10.954;2023-08-21T14:00:50;58.94;37.86;73.68;;
63692;Laerm;49838;51.798;10.954;2023-08-21T14:03:17;52.27;35.65;66.86;;
63692;Laerm;49838;51.798;10.954;2023-08-21T14:05:44;58.84;38.81;69.35;;
63692;Laerm;49838;51.798;10.954;2023-08-21T14:08:14;58.04;39.57;74.82;;
63692;Laerm;49838;51.798;10.954;2023-08-21T14:10:41;51.80;35.98;64.50;;
63692;Laerm;49838;51.798;10.954;2023-08-21T14:13:09;56.52;37.83;71.64;;
63692;Laerm;49838;51.798;10.954;2023-08-21T14:15:40;59.59;39.54;72.46;;
63692;Laerm;49838;51.798;10.954;2023-08-21T14:18:07;54.25;38.99;69.06;;
63692;Laerm;49838;51.798;10.954;2023-08-21T14:20:34;60.95;39.24;79.63;;
63692;Laerm;49838;51.798;10.954;2023-08-21T14:23:02;59.93;39.53;78.41;;
63692;Laerm;49838;51.798;10.954;2023-08-21T14:25:29;59.43;39.53;76.26;;
63692;Laerm;49838;51.798;10.954;2023-08-21T14:27:59;57.23;38.56;73.58;;
63692;Laerm;49838;51.798;10.954;2023-08-21T14:30:27;57.30;40.37;70.48;;
63692;Laerm;49838;51.798;10.954;2023-08-21T14:32:56;60.76;39.41;77.46;;
63692;Laerm;49838;51.798;10.954;2023-08-21T14:35:23;59.01;39.58;71.43;;
63692;Laerm;49838;51.798;10.954;2023-08-21T14:37:51;60.20;42.27;70.98;;
63692;Laerm;49838;51.798;10.954;2023-08-21T14:40:18;59.70;36.10;74.82;;
63692;Laerm;49838;51.798;10.954;2023-08-21T14:42:48;60.70;35.13;73.14;;
63692;Laerm;49838;51.798;10.954;2023-08-21T14:45:15;56.90;37.29;70.83;;
63692;Laerm;49838;51.798;10.954;2023-08-21T14:47:43;58.13;39.11;73.00;;
63692;Laerm;49838;51.798;10.954;2023-08-21T14:50:11;59.20;40.07;71.34;;
63692;Laerm;49838;51.798;10.954;2023-08-21T14:52:38;60.22;37.72;77.56;;
63692;Laerm;49838;51.798;10.954;2023-08-21T14:55:06;59.83;44.94;71.43;;
63692;Laerm;49838;51.798;10.954;2023-08-21T14:57:34;57.05;40.23;71.30;;
63692;Laerm;49838;51.798;10.954;2023-08-21T15:00:01;55.65;35.90;72.58;;
63692;Laerm;49838;51.798;10.954;2023-08-21T15:02:29;54.31;39.42;66.77;;
63692;Laerm;49838;51.798;10.954;2023-08-21T15:04:56;57.33;40.28;71.98;;
63692;Laerm;49838;51.798;10.954;2023-08-21T15:07:28;55.55;36.32;70.59;;
63692;Laerm;49838;51.798;10.954;2023-08-21T15:09:56;48.88;38.64;65.25;;
63692;Laerm;49838;51.798;10.954;2023-08-21T15:12:23;59.32;39.38;72.57;;
63692;Laerm;49838;51.798;10.954;2023-08-21T15:14:50;59.80;38.22;76.45;;
63692;Laerm;49838;51.798;10.954;2023-08-21T15:17:18;60.36;37.28;71.85;;
63692;Laerm;49838;51.798;10.954;2023-08-21T15:19:47;61.33;40.66;76.60;;
63692;Laerm;49838;51.798;10.954;2023-08-21T15:22:15;61.20;37.73;81.29;;
63692;Laerm;49838;51.798;10.954;2023-08-21T15:24:43;56.22;38.51;72.89;;
63692;Laerm;49838;51.798;10.954;2023-08-21T15:27:11;56.53;38.05;68.18;;
63692;Laerm;49838;51.798;10.954;2023-08-21T15:29:39;55.35;37.93;71.79;;
63692;Laerm;49838;51.798;10.954;2023-08-21T15:32:06;51.12;36.87;66.39;;
63692;Laerm;49838;51.798;10.954;2023-08-21T15:34:34;62.81;39.51;80.95;;
63692;Laerm;49838;51.798;10.954;2023-08-21T15:37:01;57.10;36.91;70.34;;
63692;Laerm;49838;51.798;10.954;2023-08-21T15:39:30;53.94;37.89;71.69;;
63692;Laerm;49838;51.798;10.954;2023-08-21T15:41:58;48.11;38.72;66.09;;
63692;Laerm;49838;51.798;10.954;2023-08-21T15:44:26;56.63;38.34;71.74;;
63692;Laerm;49838;51.798;10.954;2023-08-21T15:46:53;58.54;39.50;70.74;;
63692;Laerm;49838;51.798;10.954;2023-08-21T15:49:20;57.67;38.25;72.84;;
63692;Laerm;49838;51.798;10.954;2023-08-21T15:51:48;50.24;39.19;67.34;;
63692;Laerm;49838;51.798;10.954;2023-08-21T15:54:18;57.32;39.75;71.18;;
63692;Laerm;49838;51.798;10.954;2023-08-21T15:56:46;57.22;39.29;72.30;;
63692;Laerm;49838;51.798;10.954;2023-08-21T15:59:14;60.42;41.06;76.61;;
63692;Laerm;49838;51.798;10.954;2023-08-21T16:01:41;57.55;38.27;72.67;;
63692;Laerm;49838;51.798;10.954;2023-08-21T16:04:09;58.51;37.96;73.10;;
63692;Laerm;49838;51.798;10.954;2023-08-21T16:06:36;54.82;42.19;68.52;;
63692;Laerm;49838;51.798;10.954;2023-08-21T16:09:04;54.03;38.72;67.92;;
63692;Laerm;49838;51.798;10.954;2023-08-21T16:11:31;62.46;40.39;77.26;;
63692;Laerm;49838;51.798;10.954;2023-08-21T16:13:58;55.54;38.03;71.14;;
63692;Laerm;49838;51.798;10.954;2023-08-21T16:16:29;52.19;37.47;66.90;;
63692;Laerm;49838;51.798;10.954;2023-08-21T16:18:56;58.86;38.99;73.23;;
63692;Laerm;49838;51.798;10.954;2023-08-21T16:21:23;55.52;37.39;70.81;;
63692;Laerm;49838;51.798;10.954;2023-08-21T16:23:50;63.36;39.57;84.59;;
63692;Laerm;49838;51.798;10.954;2023-08-21T16:26:19;57.60;39.99;75.23;;
63692;Laerm;49838;51.798;10.954;2023-08-21T16:28:46;58.80;38.74;76.98;;
63692;Laerm;49838;51.798;10.954;2023-08-21T16:31:15;56.50;36.83;69.04;;
63692;Laerm;49838;51.798;10.954;2023-08-21T16:33:44;50.42;35.75;71.71;;
63692;Laerm;49838;51.798;10.954;2023-08-21T16:36:14;60.91;38.82;80.25;;
63692;Laerm;49838;51.798;10.954;2023-08-21T16:38:41;56.19;35.71;72.99;;
63692;Laerm;49838;51.798;10.954;2023-08-21T16:41:09;56.17;36.57;70.15;;
63692;Laerm;49838;51.798;10.954;2023-08-21T16:43:36;54.26;35.50;71.12;;
63692;Laerm;49838;51.798;10.954;2023-08-21T16:46:03;55.62;36.88;69.74;;
63692;Laerm;49838;51.798;10.954;2023-08-21T16:48:31;56.82;39.42;67.89;;
63692;Laerm;49838;51.798;10.954;2023-08-21T16:51:00;57.86;39.18;74.81;;
63692;Laerm;49838;51.798;10.954;2023-08-21T16:53:28;52.56;36.90;65.35;;
63692;Laerm;49838;51.798;10.954;2023-08-21T16:55:55;54.00;36.96;70.38;;
63692;Laerm;49838;51.798;10.954;2023-08-21T16:58:25;56.85;36.40;73.73;;
63692;Laerm;49838;51.798;10.954;2023-08-21T17:00:52;56.91;36.81;71.96;;
63692;Laerm;49838;51.798;10.954;2023-08-21T17:03:20;55.07;36.74;72.70;;
63692;Laerm;49838;51.798;10.954;2023-08-21T17:05:48;57.00;36.81;72.30;;
63692;Laerm;49838;51.798;10.954;2023-08-21T17:08:17;57.73;35.85;73.00;;
63692;Laerm;49838;51.798;10.954;2023-08-21T17:10:45;55.65;35.15;76.14;;
63692;Laerm;49838;51.798;10.954;2023-08-21T17:13:12;54.94;36.03;69.28;;
63692;Laerm;49838;51.798;10.954;2023-08-21T17:15:41;55.80;38.31;70.79;;
63692;Laerm;49838;51.798;10.954;2023-08-21T17:18:09;54.74;38.95;78.75;;
63692;Laerm;49838;51.798;10.954;2023-08-21T17:20:37;58.00;42.04;77.89;;
63692;Laerm;49838;51.798;10.954;2023-08-21T17:23:05;48.67;43.09;55.69;;
63692;Laerm;49838;51.798;10.954;2023-08-21T17:25:34;52.23;43.38;69.73;;
63692;Laerm;49838;51.798;10.954;2023-08-21T17:28:02;58.63;42.99;73.47;;
63692;Laerm;49838;51.798;10.954;2023-08-21T17:30:29;50.44;33.08;76.48;;
63692;Laerm;49838;51.798;10.954;2023-08-21T17:32:58;48.63;34.12;78.89;;
63692;Laerm;49838;51.798;10.954;2023-08-21T17:35:25;57.03;34.95;75.08;;
63692;Laerm;49838;51.798;10.954;2023-08-21T17:37:53;51.08;37.51;66.28;;
63692;Laerm;49838;51.798;10.954;2023-08-21T17:40:21;41.61;33.29;57.22;;
63692;Laerm;49838;51.798;10.954;2023-08-21T17:42:49;39.18;32.52;55.38;;
63692;Laerm;49838;51.798;10.954;2023-08-21T17:45:17;51.24;35.36;66.33;;
63692;Laerm;49838;51.798;10.954;2023-08-21T17:47:44;42.68;34.82;56.24;;
63692;Laerm;49838;51.798;10.954;2023-08-21T17:50:11;41.14;34.41;49.24;;
63692;Laerm;49838;51.798;10.954;2023-08-21T17:52:39;42.99;34.89;60.66;;
63692;Laerm;49838;51.798;10.954;2023-08-21T17:55:07;55.68;35.42;75.78;;
63692;Laerm;49838;51.798;10.954;2023-08-21T17:57:34;52.55;35.01;70.06;;
63692;Laerm;49838;51.798;10.954;2023-08-21T18:00:09;54.37;34.33;71.10;;
63692;Laerm;49838;51.798;10.954;2023-08-21T18:02:38;51.10;34.96;69.53;;
63692;Laerm;49838;51.798;10.954;2023-08-21T18:05:10;51.54;33.91;68.40;;
63692;Laerm;49838;51.798;10.954;2023-08-21T18:07:37;47.89;34.71;73.65;;
63692;Laerm;49838;51.798;10.954;2023-08-21T18:10:05;45.26;32.99;61.91;;
63692;Laerm;49838;51.798;10.954;2023-08-21T18:12:35;53.88;35.06;70.17;;
63692;Laerm;49838;51.798;10.954;2023-08-21T18:15:06;51.48;34.92;69.86;;
63692;Laerm;49838;51.798;10.954;2023-08-21T18:17:34;56.70;36.02;75.13;;
63692;Laerm;49838;51.798;10.954;2023-08-21T18:20:02;52.30;35.66;67.55;;
63692;Laerm;49838;51.798;10.954;2023-08-21T18:22:30;42.45;35.80;51.81;;
63692;Laerm;49838;51.798;10.954;2023-08-21T18:25:01;55.87;35.60;74.62;;
63692;Laerm;49838;51.798;10.954;2023-08-21T18:27:35;69.06;37.11;93.28;;
63692;Laerm;49838;51.798;10.954;2023-08-21T18:30:18;50.13;36.69;68.36;;
63692;Laerm;49838;51.798;10.954;2023-08-21T18:32:51;52.82;33.53;72.30;;
63692;Laerm;49838;51.798;10.954;2023-08-21T18:35:21;58.03;35.97;77.77;;
63692;Laerm;49838;51.798;10.954;2023-08-21T18:37:49;52.15;36.12;79.77;;
63692;Laerm;49838;51.798;10.954;2023-08-21T18:40:19;52.27;35.61;68.02;;
63692;Laerm;49838;51.798;10.954;2023-08-21T18:42:47;52.89;36.30;70.86;;
63692;Laerm;49838;51.798;10.954;2023-08-21T18:45:14;39.79;34.67;48.51;;
63692;Laerm;49838;51.798;10.954;2023-08-21T18:47:43;39.42;32.98;53.41;;
63692;Laerm;49838;51.798;10.954;2023-08-21T18:50:11;36.60;31.58;57.72;;
63692;Laerm;49838;51.798;10.954;2023-08-21T18:52:39;49.78;31.76;72.49;;
63692;Laerm;49838;51.798;10.954;2023-08-21T18:55:06;54.43;32.96;70.31;;
63692;Laerm;49838;51.798;10.954;2023-08-21T18:57:34;41.85;33.57;55.67;;
63692;Laerm;49838;51.798;10.954;2023-08-21T19:00:01;50.69;34.95;73.59;;
63692;Laerm;49838;51.798;10.954;2023-08-21T19:02:35;43.71;33.92;59.33;;
63692;Laerm;49838;51.798;10.954;2023-08-21T19:05:02;53.02;31.72;68.81;;
63692;Laerm;49838;51.798;10.954;2023-08-21T19:07:31;54.66;32.86;70.68;;
63692;Laerm;49838;51.798;10.954;2023-08-21T19:10:01;37.24;32.89;47.67;;
63692;Laerm;49838;51.798;10.954;2023-08-21T19:12:34;48.85;32.84;65.93;;
63692;Laerm;49838;51.798;10.954;2023-08-21T19:15:02;63.19;34.53;83.74;;
63692;Laerm;49838;51.798;10.954;2023-08-21T19:17:33;50.78;33.85;68.39;;
63692;Laerm;49838;51.798;10.954;2023-08-21T19:20:03;47.77;35.33;60.85;;
63692;Laerm;49838;51.798;10.954;2023-08-21T19:22:32;59.78;40.23;77.02;;
63692;Laerm;49838;51.798;10.954;2023-08-21T19:24:59;49.85;36.38;71.74;;
63692;Laerm;49838;51.798;10.954;2023-08-21T19:27:28;42.90;34.88;71.06;;
63692;Laerm;49838;51.798;10.954;2023-08-21T19:29:55;48.14;35.43;76.97;;
63692;Laerm;49838;51.798;10.954;2023-08-21T19:32:22;43.19;33.80;59.72;;
63692;Laerm;49838;51.798;10.954;2023-08-21T19:34:50;47.97;34.37;64.25;;
63692;Laerm;49838;51.798;10.954;2023-08-21T19:37:18;53.45;38.80;68.70;;
63692;Laerm;49838;51.798;10.954;2023-08-21T19:39:49;46.28;35.25;69.06;;
63692;Laerm;49838;51.798;10.954;2023-08-21T19:42:16;50.98;34.11;67.20;;
63692;Laerm;49838;51.798;10.954;2023-08-21T19:44:44;50.57;32.65;70.85;;
63692;Laerm;49838;51.798;10.954;2023-08-21T19:47:11;39.39;32.73;48.98;;
63692;Laerm;49838;51.798;10.954;2023-08-21T19:49:38;47.28;32.49;64.85;;
63692;Laerm;49838;51.798;10.954;2023-08-21T19:52:06;54.16;33.28;71.04;;
63692;Laerm;49838;51.798;10.954;2023-08-21T19:54:34;52.25;34.52;69.36;;
63692;Laerm;49838;51.798;10.954;2023-08-21T19:57:03;39.25;33.66;58.06;;
63692;Laerm;49838;51.798;10.954;2023-08-21T19:59:31;38.39;32.12;52.49;;
63692;Laerm;49838;51.798;10.954;2023-08-21T20:01:59;40.96;33.81;62.72;;
63692;Laerm;49838;51.798;10.954;2023-08-21T20:04:26;39.33;33.21;46.34;;
63692;Laerm;49838;51.798;10.954;2023-08-21T20:06:55;52.21;33.45;71.07;;
63692;Laerm;49838;51.798;10.954;2023-08-21T20:09:22;40.83;31.61;51.13;;
63692;Laerm;49838;51.798;10.954;2023-08-21T20:11:51;34.46;30.37;45.87;;
63692;Laerm;49838;51.798;10.954;2023-08-21T20:14:20;48.25;32.19;65.70;;
63692;Laerm;49838;51.798;10.954;2023-08-21T20:16:52;52.03;33.72;69.79;;
63692;Laerm;49838;51.798;10.954;2023-08-21T20:19:19;44.84;34.48;58.28;;
63692;Laerm;49838;51.798;10.954;2023-08-21T20:21:46;56.02;32.87;74.16;;
63692;Laerm;49838;51.798;10.954;2023-08-21T20:24:17;43.90;32.68;64.53;;
63692;Laerm;49838;51.798;10.954;2023-08-21T20:26:47;57.15;32.48;77.58;;
63692;Laerm;49838;51.798;10.954;2023-08-21T20:29:14;40.28;31.92;59.14;;
63692;Laerm;49838;51.798;10.954;2023-08-21T20:31:43;48.40;31.47;66.14;;
63692;Laerm;49838;51.798;10.954;2023-08-21T20:34:10;37.30;31.55;52.29;;
63692;Laerm;49838;51.798;10.954;2023-08-21T20:36:38;42.73;31.91;51.74;;
63692;Laerm;49838;51.798;10.954;2023-08-21T20:39:06;40.48;30.44;52.23;;
63692;Laerm;49838;51.798;10.954;2023-08-21T20:41:33;36.64;30.52;56.05;;
63692;Laerm;49838;51.798;10.954;2023-08-21T20:44:01;55.12;31.03;74.24;;
63692;Laerm;49838;51.798;10.954;2023-08-21T20:46:30;39.36;32.41;58.52;;
63692;Laerm;49838;51.798;10.954;2023-08-21T20:48:58;43.97;31.35;67.04;;
63692;Laerm;49838;51.798;10.954;2023-08-21T20:51:26;38.48;32.74;47.10;;
63692;Laerm;49838;51.798;10.954;2023-08-21T20:53:54;41.44;31.79;51.02;;
63692;Laerm;49838;51.798;10.954;2023-08-21T20:56:21;39.85;30.17;55.86;;
63692;Laerm;49838;51.798;10.954;2023-08-21T20:58:51;36.97;30.51;46.30;;
63692;Laerm;49838;51.798;10.954;2023-08-21T21:01:18;49.81;32.47;67.11;;
63692;Laerm;49838;51.798;10.954;2023-08-21T21:03:46;43.25;32.07;53.47;;
63692;Laerm;49838;51.798;10.954;2023-08-21T21:06:14;35.60;28.55;45.80;;
63692;Laerm;49838;51.798;10.954;2023-08-21T21:08:47;37.14;28.17;68.08;;
63692;Laerm;49838;51.798;10.954;2023-08-21T21:11:22;48.71;30.58;62.42;;
63692;Laerm;49838;51.798;10.954;2023-08-21T21:13:49;40.30;31.49;47.92;;
63692;Laerm;49838;51.798;10.954;2023-08-21T21:16:19;35.92;29.34;46.91;;
63692;Laerm;49838;51.798;10.954;2023-08-21T21:18:46;35.38;30.77;41.94;;
63692;Laerm;49838;51.798;10.954;2023-08-21T21:21:15;37.13;29.85;47.20;;
63692;Laerm;49838;51.798;10.954;2023-08-21T21:23:42;39.03;32.13;49.38;;
63692;Laerm;49838;51.798;10.954;2023-08-21T21:26:09;40.57;32.68;51.01;;
63692;Laerm;49838;51.798;10.954;2023-08-21T21:28:37;38.21;32.65;53.27;;
63692;Laerm;49838;51.798;10.954;2023-08-21T21:31:04;38.46;32.78;46.78;;